Time;durP1;ratioP1;P1;durP2;ratioP2;P2;SDS_P1;SDS_P2;PMS_P1;PMS_P2;Temp;Humidity;BMP_temperature;BMP_pressure;BME280_temperature;BME280_humidity;BME280_pressure;Samples;Min_cycle;Max_cycle;Signal;HPM_P1;HPM_P2
2023/10/20 00:01:12;;;;;;;12.93;11.47;;;;;;;15.69;100.00;95456.19;4189329;28;20634;-80
2023/10/20 00:03:17;;;;;;;14.63;11.87;;;;;;;15.69;100.00;95458.81;4161367;28;20682;-81
2023/10/20 00:05:20;;;;;;;14.60;11.27;;;;;;;15.66;100.00;95456.59;4177368;28;20631;-81
2023/10/20 00:07:23;;;;;;;12.00;10.80;;;;;;;15.67;100.00;95449.53;4191691;28;21010;-80
2023/10/20 00:09:26;;;;;;;13.27;10.80;;;;;;;15.67;100.00;95449.53;4172520;28;21323;-80
2023/10/20 00:11:29;;;;;;;13.10;11.23;;;;;;;15.65;100.00;95459.44;4188706;28;20693;-81
2023/10/20 00:13:33;;;;;;;11.93;10.50;;;;;;;15.61;100.00;95453.78;4177395;28;20643;-80
2023/10/20 00:15:37;;;;;;;8.80;7.00;;;;;;;15.56;100.00;95435.19;4183884;28;20655;-81
2023/10/20 00:17:41;;;;;;;13.37;10.67;;;;;;;15.58;100.00;95432.34;4159451;28;20740;-81
2023/10/20 00:19:45;;;;;;;14.27;10.13;;;;;;;15.58;100.00;95427.91;4191384;28;20631;-81
2023/10/20 00:21:49;;;;;;;11.50;10.30;;;;;;;15.61;100.00;95438.00;4172601;28;20706;-81
2023/10/20 00:23:51;;;;;;;12.27;10.80;;;;;;;15.62;100.00;95431.75;4193377;28;20656;-81
2023/10/20 00:25:54;;;;;;;8.33;5.40;;;;;;;15.60;100.00;95425.88;4160782;28;20648;-81
2023/10/20 00:27:57;;;;;;;8.20;5.80;;;;;;;15.68;100.00;95425.69;4188761;28;20641;-80
2023/10/20 00:30:02;;;;;;;6.20;5.60;;;;;;;15.71;100.00;95425.28;4189448;28;20681;-80
2023/10/20 00:32:06;;;;;;;8.03;7.23;;;;;;;15.73;100.00;95418.00;4188808;28;21000;-80
2023/10/20 00:34:09;;;;;;;5.93;5.33;;;;;;;15.76;100.00;95414.19;4169878;28;20636;-80
2023/10/20 00:36:13;;;;;;;6.40;5.60;;;;;;;15.77;100.00;95413.97;4158826;28;20648;-81
2023/10/20 00:38:17;;;;;;;6.43;5.83;;;;;;;15.80;100.00;95410.94;4168267;28;20633;-81
2023/10/20 00:40:20;;;;;;;6.73;3.80;;;;;;;15.83;100.00;95421.06;4165216;28;20641;-81
2023/10/20 00:42:24;;;;;;;5.10;3.53;;;;;;;15.87;100.00;95424.88;4179889;28;21273;-80
2023/10/20 00:44:27;;;;;;;4.67;3.40;;;;;;;15.93;100.00;95421.44;4179154;28;20671;-81
2023/10/20 00:46:30;;;;;;;3.83;3.43;;;;;;;15.97;100.00;95425.28;4178620;28;21205;-80
2023/10/20 00:48:33;;;;;;;4.30;3.90;;;;;;;16.01;100.00;95415.19;4158498;28;20628;-81
2023/10/20 00:50:36;;;;;;;4.77;3.23;;;;;;;16.04;100.00;95408.50;4174393;28;21100;-81
2023/10/20 00:52:42;;;;;;;3.90;2.90;;;;;;;16.08;100.00;95401.00;4156423;28;20664;-80
2023/10/20 00:54:47;;;;;;;7.00;6.10;;;;;;;16.09;100.00;95400.81;4204057;28;20707;-81
2023/10/20 00:56:51;;;;;;;8.77;7.70;;;;;;;16.07;100.00;95394.13;4162286;28;21083;-81
2023/10/20 00:58:54;;;;;;;9.43;7.30;;;;;;;16.03;100.00;95396.38;4204464;28;20673;-81
2023/10/20 01:00:57;;;;;;;9.10;7.77;;;;;;;16.00;100.00;95398.59;4193259;28;20668;-80
2023/10/20 01:03:00;;;;;;;13.40;8.63;;;;;;;15.99;100.00;95396.97;4165021;28;21024;-81
2023/10/20 01:05:05;;;;;;;9.13;8.23;;;;;;;16.01;100.00;95383.63;4204383;28;20638;-81
2023/10/20 01:07:09;;;;;;;10.30;8.20;;;;;;;15.99;100.00;95383.03;4183967;28;20632;-80
2023/10/20 01:09:23;;;;;;;10.13;8.83;;;;;;;15.98;100.00;95379.56;4205392;28;20622;-81
2023/10/20 01:11:27;;;;;;;12.90;8.57;;;;;;;15.98;100.00;95378.78;4167506;28;20648;-81
2023/10/20 01:13:30;;;;;;;9.70;8.70;;;;;;;15.97;100.00;95375.34;4189392;28;21177;-80
2023/10/20 01:15:33;;;;;;;10.70;9.07;;;;;;;15.95;100.00;95372.13;4179466;28;20659;-80
2023/10/20 01:17:38;;;;;;;9.90;8.37;;;;;;;15.94;100.00;95367.88;4173728;28;20660;-80
2023/10/20 01:19:41;;;;;;;9.60;8.50;;;;;;;15.94;100.00;95369.69;4177615;28;20663;-80
2023/10/20 01:21:44;;;;;;;9.87;8.03;;;;;;;15.93;100.00;95363.59;4189840;28;20725;-81
2023/10/20 01:23:47;;;;;;;10.97;9.27;;;;;;;15.91;100.00;95363.00;4159720;28;20670;-81
2023/10/20 01:25:53;;;;;;;12.37;9.33;;;;;;;15.90;100.00;95364.00;4192707;28;20786;-80
2023/10/20 01:27:55;;;;;;;11.63;9.60;;;;;;;15.90;100.00;95363.22;4168524;28;20767;-80
2023/10/20 01:29:58;;;;;;;11.30;9.37;;;;;;;15.91;100.00;95367.47;4174914;28;20709;-81
2023/10/20 01:32:02;;;;;;;12.30;9.90;;;;;;;15.91;100.00;95367.47;4175573;28;20629;-80
2023/10/20 01:34:07;;;;;;;10.63;9.30;;;;;;;15.91;100.00;95363.00;4188008;28;20627;-80
2023/10/20 01:36:09;;;;;;;13.17;9.80;;;;;;;15.91;100.00;95368.28;4186400;28;21042;-80
2023/10/20 01:38:13;;;;;;;12.70;10.33;;;;;;;15.86;100.00;95356.72;4156635;28;20698;-81
2023/10/20 01:40:17;;;;;;;11.93;10.03;;;;;;;15.76;100.00;95344.00;4170855;28;20681;-80
2023/10/20 01:42:22;;;;;;;11.80;9.60;;;;;;;15.73;100.00;95344.41;4160359;28;20675;-80
2023/10/20 01:44:28;;;;;;;11.00;9.70;;;;;;;15.73;100.00;95339.16;4176708;28;20638;-81
2023/10/20 01:46:31;;;;;;;12.87;9.63;;;;;;;15.73;100.00;95328.66;4191090;28;20640;-81
2023/10/20 01:48:35;;;;;;;11.37;9.63;;;;;;;15.74;100.00;95317.13;4190071;28;20733;-80
2023/10/20 01:50:38;;;;;;;12.90;10.40;;;;;;;15.76;100.00;95309.03;4177083;28;21347;-80
2023/10/20 01:52:42;;;;;;;12.20;10.20;;;;;;;15.75;100.00;95291.66;4176837;28;20678;-80
2023/10/20 01:54:46;;;;;;;11.07;9.70;;;;;;;15.75;100.00;95289.81;4202895;28;20626;-80
2023/10/20 01:56:49;;;;;;;11.57;10.07;;;;;;;15.74;100.00;95280.34;4185806;28;20732;-80
2023/10/20 01:58:53;;;;;;;13.00;10.40;;;;;;;15.75;100.00;95281.94;4173604;28;20707;-80
2023/10/20 02:00:57;;;;;;;12.70;10.30;;;;;;;15.76;100.00;95280.13;4178237;28;20674;-81
2023/10/20 02:03:00;;;;;;;15.47;10.00;;;;;;;15.76;100.00;95270.41;4193941;28;20635;-81
2023/10/20 02:05:04;;;;;;;11.70;9.70;;;;;;;15.75;100.00;95255.66;4182204;28;20643;-81
2023/10/20 02:07:08;;;;;;;11.70;10.10;;;;;;;15.74;100.00;95251.44;4171099;28;20627;-80
2023/10/20 02:09:11;;;;;;;11.03;9.90;;;;;;;15.74;100.00;95235.66;4186256;28;21303;-81
2023/10/20 02:11:15;;;;;;;10.53;9.43;;;;;;;15.70;100.00;95223.13;4189917;28;20761;-80
2023/10/20 02:13:18;;;;;;;12.13;9.00;;;;;;;15.67;100.00;95207.78;4177612;28;20637;-80
2023/10/20 02:15:21;;;;;;;11.17;8.90;;;;;;;15.69;100.00;95205.75;4185302;28;20651;-81
2023/10/20 02:17:25;;;;;;;10.60;8.90;;;;;;;15.69;100.00;95192.59;4150525;28;20637;-80
2023/10/20 02:19:27;;;;;;;8.90;7.73;;;;;;;15.70;100.00;95184.50;4189225;28;20612;-80
2023/10/20 02:21:30;;;;;;;11.17;8.40;;;;;;;15.70;100.00;95181.88;4190159;28;20714;-80
2023/10/20 02:23:34;;;;;;;9.10;8.20;;;;;;;15.64;100.00;95166.94;4176870;28;20636;-81
2023/10/20 02:25:37;;;;;;;8.50;6.97;;;;;;;15.66;100.00;95159.66;4192253;28;20642;-81
2023/10/20 02:27:42;;;;;;;9.53;7.80;;;;;;;15.65;100.00;95162.50;4177755;28;20635;-80
2023/10/20 02:29:45;;;;;;;9.03;7.70;;;;;;;15.65;100.00;95155.44;4160532;28;20660;-80
2023/10/20 02:31:49;;;;;;;8.67;6.73;;;;;;;15.64;100.00;95145.94;4162068;28;20640;-80
2023/10/20 02:33:52;;;;;;;9.53;7.13;;;;;;;15.65;100.00;95144.94;4174075;28;20987;-80
2023/10/20 02:35:55;;;;;;;9.07;7.03;;;;;;;15.66;100.00;95138.63;4190176;28;21061;-81
2023/10/20 02:37:58;;;;;;;8.77;6.93;;;;;;;15.69;100.00;95138.22;4193411;28;20629;-80
2023/10/20 02:40:04;;;;;;;8.40;7.00;;;;;;;15.69;100.00;95130.34;4165096;28;20713;-80
2023/10/20 02:42:07;;;;;;;11.33;7.63;;;;;;;15.69;100.00;95140.84;4176021;28;20673;-81
2023/10/20 02:44:13;;;;;;;8.23;6.00;;;;;;;15.67;100.00;95140.25;4187898;28;21137;-80
2023/10/20 02:46:16;;;;;;;7.93;7.13;;;;;;;15.67;100.00;95135.00;4194477;28;20703;-80
2023/10/20 02:48:21;;;;;;;8.20;5.20;;;;;;;15.67;100.00;95124.50;4178548;28;20657;-80
2023/10/20 02:50:25;;;;;;;8.03;6.07;;;;;;;15.68;100.00;95110.34;4174458;28;20652;-80
2023/10/20 02:52:28;;;;;;;7.17;4.80;;;;;;;15.69;100.00;95116.41;4158635;28;20640;-81
2023/10/20 02:54:31;;;;;;;9.63;6.50;;;;;;;15.72;100.00;95129.91;4163750;28;21232;-81
2023/10/20 02:56:34;;;;;;;6.23;5.30;;;;;;;15.72;100.00;95135.19;4164463;28;20644;-80
2023/10/20 02:58:37;;;;;;;6.13;5.40;;;;;;;15.76;100.00;95135.59;4176051;28;20636;-80
2023/10/20 03:00:42;;;;;;;6.80;4.80;;;;;;;15.76;100.00;95136.38;4179955;28;20641;-81
2023/10/20 03:02:48;;;;;;;5.70;5.07;;;;;;;15.78;100.00;95142.22;4159581;28;20734;-80
2023/10/20 03:04:54;;;;;;;4.73;4.23;;;;;;;15.78;100.00;95147.47;4159101;28;21308;-80
2023/10/20 03:06:57;;;;;;;5.37;4.33;;;;;;;15.80;100.00;95147.28;4177032;28;20622;-80
2023/10/20 03:09:01;;;;;;;5.53;3.83;;;;;;;15.81;100.00;95149.69;4173767;28;20643;-81
2023/10/20 03:11:04;;;;;;;3.73;3.33;;;;;;;15.81;100.00;95149.69;4160426;28;20699;-80
2023/10/20 03:13:07;;;;;;;3.70;3.30;;;;;;;15.82;100.00;95151.31;4176111;28;20732;-80
2023/10/20 03:15:11;;;;;;;4.70;3.43;;;;;;;15.83;100.00;95139.81;4190259;28;20749;-81
2023/10/20 03:17:17;;;;;;;4.60;3.30;;;;;;;15.85;100.00;95132.50;4176771;28;20622;-81
2023/10/20 03:19:20;;;;;;;4.63;3.60;;;;;;;15.87;100.00;95127.84;4178602;28;20680;-81
2023/10/20 03:21:25;;;;;;;6.00;3.70;;;;;;;15.88;100.00;95126.84;4186791;28;20669;-81
2023/10/20 03:23:28;;;;;;;3.70;3.30;;;;;;;15.92;100.00;95128.03;4190869;28;20621;-80
2023/10/20 03:25:32;;;;;;;4.37;3.67;;;;;;;15.93;100.00;95129.63;4175607;28;20637;-80
2023/10/20 03:27:35;;;;;;;4.17;3.57;;;;;;;15.94;100.00;95136.50;4170665;28;21388;-80
2023/10/20 03:29:38;;;;;;;4.77;3.43;;;;;;;15.93;100.00;95129.63;4186670;28;20642;-80
2023/10/20 03:31:42;;;;;;;4.57;4.10;;;;;;;15.93;100.00;95129.63;4192218;28;20810;-80
2023/10/20 03:33:44;;;;;;;6.23;4.63;;;;;;;15.90;100.00;95110.84;4180152;28;20639;-80
2023/10/20 03:35:47;;;;;;;6.43;5.77;;;;;;;15.85;100.00;95108.84;4173025;28;21265;-80
2023/10/20 03:37:54;;;;;;;9.30;5.50;;;;;;;15.85;100.00;95106.22;4177412;28;20643;-80
2023/10/20 03:39:57;;;;;;;7.83;6.50;;;;;;;15.86;100.00;95102.59;4183340;28;20631;-80
2023/10/20 03:42:02;;;;;;;8.37;6.23;;;;;;;15.88;100.00;95099.75;4190088;28;21072;-80
2023/10/20 03:44:04;;;;;;;7.37;5.57;;;;;;;15.89;100.00;95098.72;4175133;28;21189;-81
2023/10/20 03:46:10;;;;;;;7.20;6.40;;;;;;;15.88;100.00;95095.28;4179693;28;20632;-80
2023/10/20 03:48:13;;;;;;;7.40;6.60;;;;;;;15.88;100.00;95091.88;4188743;28;20652;-80
2023/10/20 03:50:17;;;;;;;9.63;5.87;;;;;;;15.86;100.00;95092.06;4180303;28;20692;-80
2023/10/20 03:52:23;;;;;;;7.60;5.70;;;;;;;15.86;100.00;95093.88;4174225;28;20689;-81
2023/10/20 03:54:27;;;;;;;7.90;6.10;;;;;;;15.85;100.00;95090.44;4161029;28;20632;-80
2023/10/20 03:56:34;;;;;;;8.17;4.80;;;;;;;15.84;100.00;95082.78;4199448;28;20647;-81
2023/10/20 03:58:38;;;;;;;7.10;4.97;;;;;;;15.82;100.00;95066.41;4191175;28;20701;-81
2023/10/20 04:00:42;;;;;;;7.40;4.90;;;;;;;15.80;100.00;95058.75;4173663;28;20639;-81
2023/10/20 04:02:46;;;;;;;6.03;4.80;;;;;;;15.77;100.00;95058.34;4172790;28;20644;-81
2023/10/20 04:04:49;;;;;;;6.97;4.83;;;;;;;15.73;100.00;95055.34;4187637;28;20722;-81
2023/10/20 04:06:53;;;;;;;7.27;5.03;;;;;;;15.76;100.00;95048.84;4192455;28;20623;-80
2023/10/20 04:08:57;;;;;;;9.47;6.60;;;;;;;15.76;100.00;95044.41;4163564;28;20664;-83
2023/10/20 04:11:02;;;;;;;8.53;6.27;;;;;;;15.70;100.00;95029.47;4177899;28;20721;-83
2023/10/20 04:13:09;;;;;;;8.20;6.00;;;;;;;15.63;100.00;95020.81;4184980;28;20989;-82
2023/10/20 04:15:15;;;;;;;7.53;5.57;;;;;;;15.57;100.00;95013.78;4177551;28;20745;-80
2023/10/20 04:17:19;;;;;;;8.27;5.57;;;;;;;15.55;100.00;95009.75;4195215;28;20651;-80
2023/10/20 04:19:22;;;;;;;6.67;5.20;;;;;;;15.58;100.00;95006.72;4195443;28;20636;-80
2023/10/20 04:21:26;;;;;;;6.97;5.73;;;;;;;15.60;100.00;94996.78;4171252;28;20630;-80
2023/10/20 04:23:29;;;;;;;9.00;5.90;;;;;;;15.62;100.00;95000.00;4159636;28;20720;-80
2023/10/20 04:25:39;;;;;;;5.37;4.87;;;;;;;15.62;100.00;94986.84;4190956;28;21473;-80
2023/10/20 04:27:46;;;;;;;10.77;5.27;;;;;;;15.55;100.00;94979.03;4192223;28;20641;-80
2023/10/20 04:51:13;;;;;;;8.67;7.50;;;;;;;15.20;100.00;94879.06;4173538;28;20642;-80
2023/10/20 04:53:32;;;;;;;9.30;8.30;;;;;;;15.15;100.00;94863.06;4171718;28;20636;-80
2023/10/20 04:58:16;;;;;;;9.00;8.00;;;;;;;15.06;100.00;94851.22;4171158;28;20667;-80
2023/10/20 05:00:35;;;;;;;14.47;10.00;;;;;;;15.02;100.00;94846.59;4190487;28;20720;-80
2023/10/20 05:02:44;;;;;;;10.40;9.20;;;;;;;15.01;100.00;94837.94;4188253;28;20631;-81
2023/10/20 05:04:49;;;;;;;12.27;9.60;;;;;;;15.00;100.00;94831.06;4187940;28;20766;-80
2023/10/20 05:07:05;;;;;;;12.30;10.50;;;;;;;15.00;100.00;94820.56;4165643;28;20627;-79
2023/10/20 05:09:13;;;;;;;12.43;9.60;;;;;;;15.03;100.00;94827.22;4192221;28;20695;-79
2023/10/20 05:11:16;;;;;;;14.10;10.40;;;;;;;15.01;100.00;94818.75;4189044;28;20621;-80
2023/10/20 05:13:19;;;;;;;11.13;9.53;;;;;;;14.97;100.00;94807.84;4152515;28;20655;-82
2023/10/20 05:15:24;;;;;;;13.33;11.30;;;;;;;14.97;100.00;94796.56;4205041;28;20632;-82
2023/10/20 05:17:29;;;;;;;12.93;9.67;;;;;;;14.97;100.00;94783.44;4170030;28;20664;-82
2023/10/20 05:19:35;;;;;;;12.27;9.67;;;;;;;14.92;100.00;94764.91;4171999;28;20627;-81
2023/10/20 05:21:39;;;;;;;12.53;9.67;;;;;;;14.84;100.00;94759.91;4169466;28;21008;-81
2023/10/20 05:23:43;;;;;;;10.77;9.33;;;;;;;14.82;100.00;94749.63;4173329;28;21303;-82
2023/10/20 05:25:50;;;;;;;15.10;11.03;;;;;;;14.84;100.00;94736.28;4190318;28;21239;-82
2023/10/20 05:27:52;;;;;;;12.40;9.77;;;;;;;14.79;100.00;94733.50;4161311;28;20650;-81
2023/10/20 05:29:55;;;;;;;12.73;9.83;;;;;;;14.74;100.00;94720.22;4160387;28;20642;-81
2023/10/20 05:32:00;;;;;;;11.90;9.23;;;;;;;14.73;100.00;94701.06;4202707;28;20643;-79
2023/10/20 05:34:03;;;;;;;13.67;11.07;;;;;;;14.71;100.00;94689.97;4175460;28;20630;-79
2023/10/20 05:36:08;;;;;;;12.20;10.90;;;;;;;14.73;100.00;94679.25;4186606;28;20621;-79
2023/10/20 05:38:10;;;;;;;13.90;10.17;;;;;;;14.64;100.00;94694.47;4173535;28;20673;-80
2023/10/20 05:40:14;;;;;;;13.87;10.80;;;;;;;14.59;100.00;94683.00;4163839;28;21082;-80
2023/10/20 05:42:17;;;;;;;14.53;10.73;;;;;;;14.58;100.00;94701.56;4188090;28;20625;-79
2023/10/20 05:44:23;;;;;;;13.70;11.20;;;;;;;14.59;100.00;94692.69;4189285;28;20681;-82
2023/10/20 05:46:26;;;;;;;14.40;11.20;;;;;;;14.60;100.00;94692.47;4187582;28;20625;-82
2023/10/20 05:48:30;;;;;;;14.00;11.23;;;;;;;14.58;100.00;94696.31;4189830;28;20628;-82
2023/10/20 05:50:36;;;;;;;14.10;10.70;;;;;;;14.58;100.00;94712.84;4172647;28;20622;-82
2023/10/20 05:52:39;;;;;;;12.70;10.60;;;;;;;14.60;100.00;94710.84;4168444;28;20769;-82
2023/10/20 05:54:43;;;;;;;15.17;12.47;;;;;;;14.65;100.00;94705.75;4192248;28;20640;-83
2023/10/20 05:56:46;;;;;;;13.67;11.70;;;;;;;14.71;100.00;94703.09;4182272;28;20729;-82
2023/10/20 05:58:50;;;;;;;13.53;11.53;;;;;;;14.72;100.00;94678.47;4181790;28;20691;-82
2023/10/20 06:00:53;;;;;;;12.53;10.30;;;;;;;14.76;100.00;94655.22;4190179;28;20647;-82
2023/10/20 06:03:07;;;;;;;17.10;11.20;;;;;;;14.73;100.00;94624.16;4190756;28;21035;-82
2023/10/20 06:05:10;;;;;;;13.37;10.07;;;;;;;14.70;100.00;94591.31;4201723;28;20621;-82
2023/10/20 06:07:14;;;;;;;13.83;11.17;;;;;;;14.67;100.00;94597.00;4207829;28;20674;-82
2023/10/20 06:09:17;;;;;;;14.20;11.43;;;;;;;14.70;100.00;94596.56;4192994;28;20657;-83
2023/10/20 06:11:20;;;;;;;12.57;10.70;;;;;;;14.70;100.00;94598.38;4172097;28;21414;-80
2023/10/20 06:13:23;;;;;;;14.97;11.70;;;;;;;14.68;100.00;94595.97;4173914;28;20757;-78
2023/10/20 06:15:26;;;;;;;13.87;11.13;;;;;;;14.70;100.00;94593.13;4193852;28;20641;-80
2023/10/20 06:17:29;;;;;;;14.83;12.20;;;;;;;14.73;100.00;94576.94;4177325;28;20665;-79
2023/10/20 06:19:33;;;;;;;15.07;11.73;;;;;;;14.77;100.00;94571.06;4189329;28;20632;-81
2023/10/20 06:21:38;;;;;;;13.27;11.37;;;;;;;14.68;100.00;94569.72;4191368;28;21052;-79
2023/10/20 06:23:41;;;;;;;12.83;10.30;;;;;;;14.74;100.00;94547.88;4179322;28;20657;-80
2023/10/20 06:25:45;;;;;;;13.53;11.10;;;;;;;14.75;100.00;94543.44;4160213;28;21041;-80
2023/10/20 06:27:48;;;;;;;14.67;13.07;;;;;;;14.73;100.00;94542.84;4176485;28;20749;-80
2023/10/20 06:29:55;;;;;;;17.20;12.70;;;;;;;14.75;100.00;94541.63;4186918;28;21064;-80
2023/10/20 06:32:09;;;;;;;17.60;12.80;;;;;;;14.75;100.00;94525.88;4202908;28;20671;-80
2023/10/20 06:34:23;;;;;;;13.10;10.20;;;;;;;14.77;99.74;94518.59;4171109;28;20731;-79
2023/10/20 06:36:27;;;;;;;11.53;9.80;;;;;;;14.81;100.00;94530.25;4205727;28;20675;-81
2023/10/20 06:38:34;;;;;;;14.30;10.63;;;;;;;14.80;100.00;94522.59;4179862;28;20634;-80
2023/10/20 06:40:39;;;;;;;14.87;10.93;;;;;;;14.80;100.00;94526.03;4191847;28;20629;-79
2023/10/20 06:42:44;;;;;;;14.00;10.27;;;;;;;14.81;100.00;94522.38;4205284;28;20632;-80
2023/10/20 06:44:48;;;;;;;12.37;10.13;;;;;;;14.85;100.00;94528.00;4173287;28;20658;-81
2023/10/20 06:46:52;;;;;;;14.83;11.70;;;;;;;14.85;100.00;94510.41;4181662;28;21879;-81
2023/10/20 06:48:56;;;;;;;14.07;10.77;;;;;;;14.86;100.00;94514.66;4177557;28;20637;-81
2023/10/20 06:50:58;;;;;;;13.40;10.90;;;;;;;14.85;100.00;94499.13;4172141;28;20662;-80
2023/10/20 06:53:01;;;;;;;12.87;10.93;;;;;;;14.87;100.00;94484.78;4195584;28;20752;-80
2023/10/20 06:55:07;;;;;;;14.47;11.50;;;;;;;14.90;100.00;94486.97;4177016;28;20630;-79
2023/10/20 06:57:30;;;;;;;14.37;11.57;;;;;;;14.94;100.00;94482.09;4163784;28;20636;-80
2023/10/20 06:59:34;;;;;;;14.67;11.30;;;;;;;14.91;100.00;94458.91;4177014;28;20631;-81
2023/10/20 07:01:37;;;;;;;14.87;10.73;;;;;;;14.92;100.00;94456.06;4187436;28;20624;-80
2023/10/20 07:03:40;;;;;;;15.13;10.97;;;;;;;14.94;100.00;94467.13;4177513;28;20728;-80
2023/10/20 07:05:47;;;;;;;15.87;11.70;;;;;;;14.97;100.00;94485.06;4191687;28;20622;-79
2023/10/20 07:07:51;;;;;;;16.97;13.53;;;;;;;15.00;100.00;94479.38;4179213;28;20639;-79
2023/10/20 07:09:55;;;;;;;16.33;12.13;;;;;;;14.96;100.00;94467.72;4178348;28;20636;-79
2023/10/20 07:12:01;;;;;;;16.03;12.60;;;;;;;14.98;100.00;94470.94;4172456;28;20654;-79
2023/10/20 07:14:05;;;;;;;13.87;11.80;;;;;;;14.99;100.00;94448.09;4185402;28;20670;-80
2023/10/20 07:16:08;;;;;;;15.83;13.07;;;;;;;15.00;99.61;94462.84;4192040;28;20674;-79
2023/10/20 07:18:12;;;;;;;14.83;12.17;;;;;;;15.05;99.36;94450.66;4176363;28;20665;-79
2023/10/20 07:20:16;;;;;;;16.00;12.10;;;;;;;15.10;100.00;94448.97;4193410;28;20681;-79
2023/10/20 07:22:19;;;;;;;14.73;12.50;;;;;;;15.10;98.59;94471.78;4188112;28;20996;-78
2023/10/20 07:24:26;;;;;;;14.03;12.50;;;;;;;15.12;98.77;94430.38;4209811;28;20617;-78
2023/10/20 07:26:30;;;;;;;16.33;12.40;;;;;;;15.16;99.86;94434.16;4194567;28;21170;-79
2023/10/20 07:28:34;;;;;;;15.40;11.50;;;;;;;15.18;99.05;94443.47;4182052;28;20653;-78
2023/10/20 07:30:37;;;;;;;16.70;13.67;;;;;;;15.20;99.19;94464.25;4199806;28;21082;-78
2023/10/20 07:32:40;;;;;;;16.50;13.30;;;;;;;15.24;98.97;94444.38;4175499;28;20635;-79
2023/10/20 07:34:43;;;;;;;15.10;12.90;;;;;;;15.24;98.91;94441.75;4192999;28;20725;-79
2023/10/20 07:36:46;;;;;;;15.40;12.40;;;;;;;15.31;100.00;94447.72;4161486;28;20631;-78
2023/10/20 07:38:50;;;;;;;16.80;13.17;;;;;;;15.37;99.35;94459.97;4194410;28;20632;-78
2023/10/20 07:40:52;;;;;;;17.40;13.40;;;;;;;15.40;100.00;94470.03;4157776;28;20636;-79
2023/10/20 07:43:01;;;;;;;15.00;12.17;;;;;;;15.45;98.00;94476.19;4173863;28;20623;-78
2023/10/20 07:45:06;;;;;;;16.17;12.13;;;;;;;15.49;97.42;94461.63;4190490;28;20622;-79
2023/10/20 07:47:10;;;;;;;15.93;12.67;;;;;;;15.54;97.82;94445.19;4194264;28;20670;-78
2023/10/20 07:49:13;;;;;;;14.57;12.40;;;;;;;15.60;99.49;94453.75;4174933;28;20626;-79
2023/10/20 07:51:16;;;;;;;15.60;12.03;;;;;;;15.63;99.47;94452.50;4175444;28;20629;-79
2023/10/20 07:53:20;;;;;;;16.47;12.03;;;;;;;15.70;97.72;94442.72;4156205;28;21244;-79
2023/10/20 07:55:23;;;;;;;15.00;11.57;;;;;;;15.78;98.01;94443.19;4189927;28;20666;-79
2023/10/20 07:57:26;;;;;;;14.33;11.20;;;;;;;15.86;98.50;94435.00;4171065;28;20636;-78
2023/10/20 07:59:29;;;;;;;14.63;11.03;;;;;;;15.90;98.56;94435.34;4186699;28;20674;-79
2023/10/20 08:01:34;;;;;;;12.40;10.80;;;;;;;15.95;98.00;94441.53;4170272;28;20729;-79
2023/10/20 08:03:36;;;;;;;13.80;11.50;;;;;;;16.02;97.88;94442.19;4160733;28;20641;-79
2023/10/20 08:05:40;;;;;;;14.13;10.80;;;;;;;16.09;96.61;94438.44;4177285;28;20627;-79
2023/10/20 08:07:44;;;;;;;14.97;12.50;;;;;;;16.13;97.06;94441.41;4155520;28;20691;-79
2023/10/20 08:09:46;;;;;;;13.10;11.10;;;;;;;16.17;95.81;94448.63;4169676;28;20702;-78
2023/10/20 08:11:49;;;;;;;15.33;11.50;;;;;;;16.15;93.87;94449.88;4192825;28;20668;-80
2023/10/20 08:13:53;;;;;;;14.73;12.07;;;;;;;16.16;93.57;94446.22;4185692;28;20790;-78
2023/10/20 08:15:59;;;;;;;13.47;10.77;;;;;;;16.15;93.57;94442.00;4172622;28;20640;-79
2023/10/20 08:18:05;;;;;;;13.00;10.70;;;;;;;16.15;93.43;94449.88;4196058;28;21183;-79
2023/10/20 08:20:09;;;;;;;12.40;11.00;;;;;;;16.14;94.54;94448.28;4170102;28;21186;-80
2023/10/20 08:22:13;;;;;;;15.40;12.13;;;;;;;16.12;94.04;94458.22;4204767;28;20651;-78
2023/10/20 08:24:16;;;;;;;14.87;11.53;;;;;;;16.05;95.63;94460.16;4178979;28;20635;-78
2023/10/20 08:26:19;;;;;;;13.30;11.80;;;;;;;16.04;94.48;94469.88;4175154;28;20656;-78
2023/10/20 08:28:24;;;;;;;13.90;10.93;;;;;;;16.06;94.09;94477.53;4190955;28;20637;-78
2023/10/20 08:30:28;;;;;;;14.50;11.07;;;;;;;16.09;95.41;94484.97;4157782;28;21202;-79
2023/10/20 08:32:32;;;;;;;16.67;12.13;;;;;;;16.08;95.45;94481.53;4204060;28;20619;-79
2023/10/20 08:34:36;;;;;;;14.00;12.13;;;;;;;16.04;95.22;94492.72;4189165;28;20650;-78
2023/10/20 08:36:40;;;;;;;13.43;11.90;;;;;;;16.09;94.51;94503.38;4165513;28;20626;-79
2023/10/20 08:38:43;;;;;;;15.80;12.53;;;;;;;16.09;94.75;94503.38;4164312;28;20762;-78
2023/10/20 08:40:46;;;;;;;15.80;11.97;;;;;;;16.09;94.18;94511.25;4171194;28;20631;-79
2023/10/20 08:43:10;;;;;;;14.03;12.53;;;;;;;16.12;95.86;94522.13;4159244;28;20639;-78
2023/10/20 08:45:14;;;;;;;14.80;11.77;;;;;;;16.13;94.71;94515.84;4163063;28;21201;-79
2023/10/20 08:47:19;;;;;;;13.80;11.73;;;;;;;16.16;94.40;94520.66;4186236;28;21203;-80
2023/10/20 08:49:22;;;;;;;14.53;11.37;;;;;;;16.19;93.58;94524.66;4178325;28;20635;-79
2023/10/20 08:51:26;;;;;;;15.23;12.50;;;;;;;16.21;94.01;94536.56;4177669;28;20665;-79
2023/10/20 08:53:34;;;;;;;13.63;12.10;;;;;;;16.28;95.55;94536.47;4179447;28;21237;-79
2023/10/20 08:55:37;;;;;;;13.40;10.83;;;;;;;16.34;95.56;94533.75;4178082;28;20642;-79
2023/10/20 08:57:45;;;;;;;13.20;11.57;;;;;;;16.41;94.81;94544.97;4156781;28;20715;-78
2023/10/20 08:59:51;;;;;;;15.17;12.00;;;;;;;16.50;95.22;94555.97;4180262;28;20689;-79
2023/10/20 09:01:54;;;;;;;13.90;11.73;;;;;;;16.55;95.17;94560.31;4189212;28;20614;-79
2023/10/20 09:04:00;;;;;;;13.50;11.50;;;;;;;16.65;93.94;94576.34;4185124;28;20722;-80
2023/10/20 09:06:05;;;;;;;12.10;10.90;;;;;;;16.76;94.97;94580.78;4188077;28;20635;-79
2023/10/20 09:08:12;;;;;;;12.70;11.30;;;;;;;16.82;93.03;94581.72;4180021;28;20640;-79
2023/10/20 09:10:15;;;;;;;13.27;11.20;;;;;;;16.89;94.11;94596.38;4161417;28;20653;-79
2023/10/20 09:12:18;;;;;;;12.50;10.53;;;;;;;16.97;92.86;94617.09;4176234;28;20616;-79
2023/10/20 09:14:22;;;;;;;13.30;11.07;;;;;;;16.99;92.66;94639.56;4154125;28;20671;-79
2023/10/20 09:16:25;;;;;;;12.33;11.03;;;;;;;16.99;93.29;94655.34;4190305;28;20646;-79
2023/10/20 09:18:28;;;;;;;12.50;11.20;;;;;;;17.01;94.45;94665.66;4160616;28;20642;-79
2023/10/20 09:20:31;;;;;;;12.47;11.17;;;;;;;17.07;94.03;94693.72;4177369;28;20664;-79
2023/10/20 09:22:36;;;;;;;12.23;10.90;;;;;;;17.14;94.92;94712.84;4169816;28;20718;-79
2023/10/20 09:24:42;;;;;;;12.53;11.00;;;;;;;17.19;93.83;94718.25;4204214;28;21321;-79
2023/10/20 09:26:45;;;;;;;10.50;9.40;;;;;;;17.28;93.75;94724.81;4190823;28;20635;-79
2023/10/20 09:28:50;;;;;;;14.53;12.93;;;;;;;17.30;93.58;94735.91;4161955;28;20629;-80
2023/10/20 09:30:54;;;;;;;11.43;9.33;;;;;;;17.28;94.55;94730.88;4195570;28;21259;-79
2023/10/20 09:32:57;;;;;;;12.07;9.47;;;;;;;17.27;94.42;94725.84;4201529;28;20662;-80
2023/10/20 09:35:01;;;;;;;11.77;10.33;;;;;;;17.31;94.40;94721.72;4170914;28;21074;-79
2023/10/20 09:37:04;;;;;;;11.70;9.93;;;;;;;17.35;94.46;94728.94;4155291;28;20688;-79
2023/10/20 09:39:11;;;;;;;12.50;10.90;;;;;;;17.44;94.78;94718.84;4183524;28;20728;-79
2023/10/20 09:41:17;;;;;;;11.57;10.37;;;;;;;17.50;93.81;94716.13;4194371;28;20636;-79
2023/10/20 09:43:24;;;;;;;11.40;10.23;;;;;;;17.55;93.67;94719.66;4188065;28;20627;-79
2023/10/20 09:45:32;;;;;;;11.47;10.17;;;;;;;17.57;93.08;94704.41;4174395;28;20634;-79
2023/10/20 09:47:36;;;;;;;10.77;9.30;;;;;;;17.64;92.15;94691.13;4189469;28;21055;-79
2023/10/20 09:49:40;;;;;;;25.60;10.20;;;;;;;17.70;92.60;94693.63;4169283;28;21168;-79
2023/10/20 09:51:45;;;;;;;12.67;11.37;;;;;;;17.73;91.60;94700.28;4151264;28;21051;-79
2023/10/20 09:53:49;;;;;;;11.57;9.70;;;;;;;17.72;91.90;94693.41;4192769;28;20652;-79
2023/10/20 09:55:52;;;;;;;12.60;9.90;;;;;;;17.77;91.97;94696.16;4171964;28;20686;-79